sensor_id;sensor_type;location;lat;lon;timestamp;P1;durP1;ratioP1;P2;durP2;ratioP2
70744;SDS011;59284;31.390;34.904;2023-08-24T00:00:11;17.23;;;10.33;;
70744;SDS011;59284;31.390;34.904;2023-08-24T00:02:37;22.52;;;12.55;;
70744;SDS011;59284;31.390;34.904;2023-08-24T00:05:02;18.27;;;10.63;;
70744;SDS011;59284;31.390;34.904;2023-08-24T00:07:28;20.80;;;11.40;;
70744;SDS011;59284;31.390;34.904;2023-08-24T00:09:54;18.17;;;11.60;;
70744;SDS011;59284;31.390;34.904;2023-08-24T00:12:19;19.17;;;11.53;;
70744;SDS011;59284;31.390;34.904;2023-08-24T00:14:45;18.30;;;11.57;;
70744;SDS011;59284;31.390;34.904;2023-08-24T00:17:10;24.47;;;12.70;;
70744;SDS011;59284;31.390;34.904;2023-08-24T00:19:36;21.10;;;12.13;;
70744;SDS011;59284;31.390;34.904;2023-08-24T00:22:01;18.80;;;11.10;;
70744;SDS011;59284;31.390;34.904;2023-08-24T00:24:27;19.50;;;11.53;;
70744;SDS011;59284;31.390;34.904;2023-08-24T00:26:52;21.67;;;11.05;;
70744;SDS011;59284;31.390;34.904;2023-08-24T00:29:17;22.53;;;11.70;;
70744;SDS011;59284;31.390;34.904;2023-08-24T00:31:43;21.27;;;12.53;;
70744;SDS011;59284;31.390;34.904;2023-08-24T00:34:08;20.17;;;11.30;;
70744;SDS011;59284;31.390;34.904;2023-08-24T00:36:34;19.70;;;11.40;;
70744;SDS011;59284;31.390;34.904;2023-08-24T00:38:59;20.00;;;11.27;;
70744;SDS011;59284;31.390;34.904;2023-08-24T00:41:25;18.55;;;11.70;;
70744;SDS011;59284;31.390;34.904;2023-08-24T00:43:51;22.50;;;11.13;;
70744;SDS011;59284;31.390;34.904;2023-08-24T00:46:16;19.20;;;11.37;;
70744;SDS011;59284;31.390;34.904;2023-08-24T00:48:42;19.45;;;10.85;;
70744;SDS011;59284;31.390;34.904;2023-08-24T00:51:08;20.53;;;10.13;;
70744;SDS011;59284;31.390;34.904;2023-08-24T00:53:33;24.80;;;11.93;;
70744;SDS011;59284;31.390;34.904;2023-08-24T00:55:59;24.43;;;12.10;;
70744;SDS011;59284;31.390;34.904;2023-08-24T00:58:26;18.83;;;11.18;;
70744;SDS011;59284;31.390;34.904;2023-08-24T01:00:52;17.88;;;10.55;;
70744;SDS011;59284;31.390;34.904;2023-08-24T01:03:18;22.10;;;11.88;;
70744;SDS011;59284;31.390;34.904;2023-08-24T01:05:44;18.70;;;11.33;;
70744;SDS011;59284;31.390;34.904;2023-08-24T01:08:09;24.88;;;12.32;;
70744;SDS011;59284;31.390;34.904;2023-08-24T01:13:48;25.15;;;11.77;;
70744;SDS011;59284;31.390;34.904;2023-08-24T01:16:19;22.57;;;12.87;;
70744;SDS011;59284;31.390;34.904;2023-08-24T01:18:46;23.05;;;12.07;;
70744;SDS011;59284;31.390;34.904;2023-08-24T01:21:12;23.23;;;12.02;;
70744;SDS011;59284;31.390;34.904;2023-08-24T01:26:18;25.50;;;12.20;;
70744;SDS011;59284;31.390;34.904;2023-08-24T01:28:44;21.05;;;12.30;;
70744;SDS011;59284;31.390;34.904;2023-08-24T01:31:10;24.52;;;11.07;;
70744;SDS011;59284;31.390;34.904;2023-08-24T01:33:35;19.23;;;11.37;;
70744;SDS011;59284;31.390;34.904;2023-08-24T01:36:01;24.53;;;12.67;;
70744;SDS011;59284;31.390;34.904;2023-08-24T01:38:26;25.25;;;12.52;;
70744;SDS011;59284;31.390;34.904;2023-08-24T01:43:36;21.38;;;11.35;;
70744;SDS011;59284;31.390;34.904;2023-08-24T01:46:05;18.10;;;10.55;;
70744;SDS011;59284;31.390;34.904;2023-08-24T01:48:32;16.73;;;10.60;;
70744;SDS011;59284;31.390;34.904;2023-08-24T01:50:58;18.03;;;10.03;;
70744;SDS011;59284;31.390;34.904;2023-08-24T01:53:24;20.67;;;12.05;;
70744;SDS011;59284;31.390;34.904;2023-08-24T01:55:49;14.63;;;9.40;;
70744;SDS011;59284;31.390;34.904;2023-08-24T01:58:15;17.13;;;10.40;;
70744;SDS011;59284;31.390;34.904;2023-08-24T02:00:40;18.13;;;10.80;;
70744;SDS011;59284;31.390;34.904;2023-08-24T02:03:06;17.23;;;10.43;;
70744;SDS011;59284;31.390;34.904;2023-08-24T02:05:31;16.10;;;10.93;;
70744;SDS011;59284;31.390;34.904;2023-08-24T02:07:57;20.30;;;10.57;;
70744;SDS011;59284;31.390;34.904;2023-08-24T02:10:22;17.27;;;9.73;;
70744;SDS011;59284;31.390;34.904;2023-08-24T02:12:48;15.18;;;10.52;;
70744;SDS011;59284;31.390;34.904;2023-08-24T02:15:13;16.53;;;10.13;;
70744;SDS011;59284;31.390;34.904;2023-08-24T02:17:38;17.87;;;10.70;;
70744;SDS011;59284;31.390;34.904;2023-08-24T02:20:05;24.67;;;10.57;;
70744;SDS011;59284;31.390;34.904;2023-08-24T02:22:30;24.48;;;11.65;;
70744;SDS011;59284;31.390;34.904;2023-08-24T02:24:56;18.53;;;10.43;;
70744;SDS011;59284;31.390;34.904;2023-08-24T02:27:21;19.42;;;10.80;;
70744;SDS011;59284;31.390;34.904;2023-08-24T02:29:46;18.50;;;10.80;;
70744;SDS011;59284;31.390;34.904;2023-08-24T02:32:12;14.97;;;10.00;;
70744;SDS011;59284;31.390;34.904;2023-08-24T02:34:37;16.80;;;10.57;;
70744;SDS011;59284;31.390;34.904;2023-08-24T02:37:03;19.13;;;10.95;;
70744;SDS011;59284;31.390;34.904;2023-08-24T02:39:29;19.27;;;9.30;;
70744;SDS011;59284;31.390;34.904;2023-08-24T02:41:54;19.93;;;10.23;;
70744;SDS011;59284;31.390;34.904;2023-08-24T02:44:20;22.40;;;11.82;;
70744;SDS011;59284;31.390;34.904;2023-08-24T02:46:45;21.30;;;11.10;;
70744;SDS011;59284;31.390;34.904;2023-08-24T02:49:10;18.43;;;10.30;;
70744;SDS011;59284;31.390;34.904;2023-08-24T02:51:36;17.80;;;9.50;;
70744;SDS011;59284;31.390;34.904;2023-08-24T02:54:01;13.57;;;8.40;;
70744;SDS011;59284;31.390;34.904;2023-08-24T02:56:27;17.08;;;9.95;;
70744;SDS011;59284;31.390;34.904;2023-08-24T02:58:52;17.87;;;8.73;;
70744;SDS011;59284;31.390;34.904;2023-08-24T03:01:18;15.97;;;8.93;;
70744;SDS011;59284;31.390;34.904;2023-08-24T03:03:43;24.98;;;10.00;;
70744;SDS011;59284;31.390;34.904;2023-08-24T03:06:08;16.63;;;9.30;;
70744;SDS011;59284;31.390;34.904;2023-08-24T03:08:34;19.97;;;10.20;;
70744;SDS011;59284;31.390;34.904;2023-08-24T03:11:00;16.73;;;9.15;;
70744;SDS011;59284;31.390;34.904;2023-08-24T03:13:26;16.38;;;10.43;;
70744;SDS011;59284;31.390;34.904;2023-08-24T03:15:52;16.90;;;9.95;;
70744;SDS011;59284;31.390;34.904;2023-08-24T03:18:18;21.43;;;9.83;;
70744;SDS011;59284;31.390;34.904;2023-08-24T03:20:44;19.00;;;9.50;;
70744;SDS011;59284;31.390;34.904;2023-08-24T03:23:09;17.50;;;10.52;;
70744;SDS011;59284;31.390;34.904;2023-08-24T03:25:35;22.37;;;12.40;;
70744;SDS011;59284;31.390;34.904;2023-08-24T03:28:02;17.98;;;10.40;;
70744;SDS011;59284;31.390;34.904;2023-08-24T03:30:27;23.77;;;10.50;;
70744;SDS011;59284;31.390;34.904;2023-08-24T03:32:52;24.63;;;10.53;;
70744;SDS011;59284;31.390;34.904;2023-08-24T03:35:18;19.40;;;9.00;;
70744;SDS011;59284;31.390;34.904;2023-08-24T03:37:43;21.03;;;10.27;;
70744;SDS011;59284;31.390;34.904;2023-08-24T03:40:09;22.80;;;11.03;;
70744;SDS011;59284;31.390;34.904;2023-08-24T03:42:34;18.43;;;10.60;;
70744;SDS011;59284;31.390;34.904;2023-08-24T03:45:00;26.50;;;11.10;;
70744;SDS011;59284;31.390;34.904;2023-08-24T03:47:25;21.30;;;9.70;;
70744;SDS011;59284;31.390;34.904;2023-08-24T03:49:50;18.53;;;9.60;;
70744;SDS011;59284;31.390;34.904;2023-08-24T03:52:16;20.55;;;8.70;;
70744;SDS011;59284;31.390;34.904;2023-08-24T03:54:41;16.50;;;9.87;;
70744;SDS011;59284;31.390;34.904;2023-08-24T03:57:07;17.67;;;10.60;;
70744;SDS011;59284;31.390;34.904;2023-08-24T03:59:32;14.17;;;7.97;;
70744;SDS011;59284;31.390;34.904;2023-08-24T04:01:58;13.35;;;8.40;;
70744;SDS011;59284;31.390;34.904;2023-08-24T04:04:27;13.83;;;8.73;;
70744;SDS011;59284;31.390;34.904;2023-08-24T04:06:52;19.80;;;10.20;;
70744;SDS011;59284;31.390;34.904;2023-08-24T04:09:17;18.10;;;10.60;;
70744;SDS011;59284;31.390;34.904;2023-08-24T04:11:43;17.27;;;9.73;;
70744;SDS011;59284;31.390;34.904;2023-08-24T04:14:09;14.53;;;6.73;;
70744;SDS011;59284;31.390;34.904;2023-08-24T04:16:34;14.83;;;9.00;;
70744;SDS011;59284;31.390;34.904;2023-08-24T04:18:59;17.93;;;9.57;;
70744;SDS011;59284;31.390;34.904;2023-08-24T04:21:25;21.23;;;9.87;;
70744;SDS011;59284;31.390;34.904;2023-08-24T04:23:50;17.13;;;9.52;;
70744;SDS011;59284;31.390;34.904;2023-08-24T04:26:16;14.40;;;8.83;;
70744;SDS011;59284;31.390;34.904;2023-08-24T04:28:41;14.83;;;10.00;;
70744;SDS011;59284;31.390;34.904;2023-08-24T04:31:07;17.48;;;11.13;;
70744;SDS011;59284;31.390;34.904;2023-08-24T04:33:32;13.83;;;8.87;;
70744;SDS011;59284;31.390;34.904;2023-08-24T04:35:58;19.07;;;9.23;;
70744;SDS011;59284;31.390;34.904;2023-08-24T04:38:23;12.13;;;7.82;;
70744;SDS011;59284;31.390;34.904;2023-08-24T04:40:55;16.00;;;8.50;;
70744;SDS011;59284;31.390;34.904;2023-08-24T04:43:21;14.63;;;9.30;;
70744;SDS011;59284;31.390;34.904;2023-08-24T04:45:48;13.07;;;8.45;;
70744;SDS011;59284;31.390;34.904;2023-08-24T04:48:13;17.97;;;8.93;;
70744;SDS011;59284;31.390;34.904;2023-08-24T04:50:41;15.57;;;8.15;;
70744;SDS011;59284;31.390;34.904;2023-08-24T04:53:07;14.20;;;8.35;;
70744;SDS011;59284;31.390;34.904;2023-08-24T04:55:32;16.03;;;9.00;;
70744;SDS011;59284;31.390;34.904;2023-08-24T04:57:57;19.20;;;8.33;;
70744;SDS011;59284;31.390;34.904;2023-08-24T05:00:23;13.18;;;8.05;;
70744;SDS011;59284;31.390;34.904;2023-08-24T05:02:48;15.33;;;9.57;;
70744;SDS011;59284;31.390;34.904;2023-08-24T05:05:14;14.47;;;8.30;;
70744;SDS011;59284;31.390;34.904;2023-08-24T05:07:39;14.80;;;7.57;;
70744;SDS011;59284;31.390;34.904;2023-08-24T05:10:06;12.38;;;8.27;;
70744;SDS011;59284;31.390;34.904;2023-08-24T05:12:31;15.90;;;10.57;;
70744;SDS011;59284;31.390;34.904;2023-08-24T05:14:59;13.55;;;7.57;;
70744;SDS011;59284;31.390;34.904;2023-08-24T05:17:24;15.60;;;8.60;;
70744;SDS011;59284;31.390;34.904;2023-08-24T05:19:53;15.23;;;8.95;;
70744;SDS011;59284;31.390;34.904;2023-08-24T05:22:18;17.02;;;8.07;;
70744;SDS011;59284;31.390;34.904;2023-08-24T05:24:44;15.27;;;8.63;;
70744;SDS011;59284;31.390;34.904;2023-08-24T05:27:09;11.70;;;7.90;;
70744;SDS011;59284;31.390;34.904;2023-08-24T05:29:34;16.90;;;8.40;;
70744;SDS011;59284;31.390;34.904;2023-08-24T05:32:00;13.15;;;8.48;;
70744;SDS011;59284;31.390;34.904;2023-08-24T05:34:25;12.77;;;8.27;;
70744;SDS011;59284;31.390;34.904;2023-08-24T05:36:50;12.53;;;8.17;;
70744;SDS011;59284;31.390;34.904;2023-08-24T05:39:16;11.20;;;8.10;;
70744;SDS011;59284;31.390;34.904;2023-08-24T05:41:41;14.70;;;8.18;;
70744;SDS011;59284;31.390;34.904;2023-08-24T05:44:07;16.17;;;7.07;;
70744;SDS011;59284;31.390;34.904;2023-08-24T05:46:32;12.90;;;9.07;;
70744;SDS011;59284;31.390;34.904;2023-08-24T05:48:58;9.48;;;6.28;;
70744;SDS011;59284;31.390;34.904;2023-08-24T05:51:24;11.53;;;6.53;;
70744;SDS011;59284;31.390;34.904;2023-08-24T05:53:50;14.82;;;7.63;;
70744;SDS011;59284;31.390;34.904;2023-08-24T05:56:20;13.47;;;8.60;;
70744;SDS011;59284;31.390;34.904;2023-08-24T05:58:46;12.50;;;7.57;;
70744;SDS011;59284;31.390;34.904;2023-08-24T06:01:11;11.70;;;7.27;;
70744;SDS011;59284;31.390;34.904;2023-08-24T06:03:36;12.00;;;7.03;;
70744;SDS011;59284;31.390;34.904;2023-08-24T06:06:03;11.65;;;6.53;;
70744;SDS011;59284;31.390;34.904;2023-08-24T06:08:28;15.47;;;7.10;;
70744;SDS011;59284;31.390;34.904;2023-08-24T06:10:54;9.00;;;6.45;;
70744;SDS011;59284;31.390;34.904;2023-08-24T06:13:19;13.70;;;8.13;;
70744;SDS011;59284;31.390;34.904;2023-08-24T06:15:44;12.10;;;7.27;;
70744;SDS011;59284;31.390;34.904;2023-08-24T06:18:10;12.67;;;6.93;;
70744;SDS011;59284;31.390;34.904;2023-08-24T06:20:35;10.13;;;7.27;;
70744;SDS011;59284;31.390;34.904;2023-08-24T06:23:01;15.13;;;7.57;;
70744;SDS011;59284;31.390;34.904;2023-08-24T06:25:27;8.63;;;4.93;;
70744;SDS011;59284;31.390;34.904;2023-08-24T06:27:53;14.40;;;7.23;;
70744;SDS011;59284;31.390;34.904;2023-08-24T06:30:18;11.63;;;7.10;;
70744;SDS011;59284;31.390;34.904;2023-08-24T06:32:44;14.83;;;7.63;;
70744;SDS011;59284;31.390;34.904;2023-08-24T06:35:10;11.32;;;7.22;;
70744;SDS011;59284;31.390;34.904;2023-08-24T06:37:39;13.38;;;7.65;;
70744;SDS011;59284;31.390;34.904;2023-08-24T06:40:05;11.50;;;6.17;;
70744;SDS011;59284;31.390;34.904;2023-08-24T06:42:30;18.42;;;7.40;;
70744;SDS011;59284;31.390;34.904;2023-08-24T06:44:56;11.83;;;6.73;;
70744;SDS011;59284;31.390;34.904;2023-08-24T06:47:21;12.30;;;6.27;;
70744;SDS011;59284;31.390;34.904;2023-08-24T06:49:47;11.27;;;6.80;;
70744;SDS011;59284;31.390;34.904;2023-08-24T06:52:12;10.23;;;7.60;;
70744;SDS011;59284;31.390;34.904;2023-08-24T06:54:37;11.25;;;6.75;;
70744;SDS011;59284;31.390;34.904;2023-08-24T06:57:03;9.93;;;5.57;;
70744;SDS011;59284;31.390;34.904;2023-08-24T06:59:28;7.07;;;4.73;;
70744;SDS011;59284;31.390;34.904;2023-08-24T07:01:54;11.07;;;5.37;;
70744;SDS011;59284;31.390;34.904;2023-08-24T07:04:19;11.15;;;6.57;;
70744;SDS011;59284;31.390;34.904;2023-08-24T07:06:45;12.60;;;6.80;;
70744;SDS011;59284;31.390;34.904;2023-08-24T07:09:11;12.98;;;7.75;;
70744;SDS011;59284;31.390;34.904;2023-08-24T07:11:36;15.87;;;9.47;;
70744;SDS011;59284;31.390;34.904;2023-08-24T07:14:02;11.50;;;6.67;;
70744;SDS011;59284;31.390;34.904;2023-08-24T07:16:27;9.73;;;5.80;;
70744;SDS011;59284;31.390;34.904;2023-08-24T07:18:53;13.90;;;8.65;;
70744;SDS011;59284;31.390;34.904;2023-08-24T07:21:18;12.67;;;6.60;;
70744;SDS011;59284;31.390;34.904;2023-08-24T07:23:43;9.03;;;5.20;;
70744;SDS011;59284;31.390;34.904;2023-08-24T07:26:09;11.50;;;7.57;;
70744;SDS011;59284;31.390;34.904;2023-08-24T07:28:34;8.60;;;6.57;;
70744;SDS011;59284;31.390;34.904;2023-08-24T07:31:06;9.17;;;6.27;;
70744;SDS011;59284;31.390;34.904;2023-08-24T07:33:32;11.20;;;6.47;;
70744;SDS011;59284;31.390;34.904;2023-08-24T07:35:57;10.37;;;5.87;;
70744;SDS011;59284;31.390;34.904;2023-08-24T07:38:23;8.83;;;5.93;;
70744;SDS011;59284;31.390;34.904;2023-08-24T07:40:48;10.80;;;5.80;;
70744;SDS011;59284;31.390;34.904;2023-08-24T07:43:13;7.13;;;4.53;;
70744;SDS011;59284;31.390;34.904;2023-08-24T07:45:39;15.53;;;5.43;;
70744;SDS011;59284;31.390;34.904;2023-08-24T07:48:06;12.52;;;6.13;;
70744;SDS011;59284;31.390;34.904;2023-08-24T07:50:32;5.72;;;4.47;;
70744;SDS011;59284;31.390;34.904;2023-08-24T07:52:57;11.50;;;5.67;;
70744;SDS011;59284;31.390;34.904;2023-08-24T07:55:22;5.93;;;4.23;;
70744;SDS011;59284;31.390;34.904;2023-08-24T07:57:48;9.93;;;5.63;;
70744;SDS011;59284;31.390;34.904;2023-08-24T08:00:14;11.57;;;6.30;;
70744;SDS011;59284;31.390;34.904;2023-08-24T08:02:40;8.05;;;5.25;;
70744;SDS011;59284;31.390;34.904;2023-08-24T08:05:05;11.17;;;6.00;;
70744;SDS011;59284;31.390;34.904;2023-08-24T08:07:35;8.55;;;6.20;;
70744;SDS011;59284;31.390;34.904;2023-08-24T08:10:01;9.95;;;5.25;;
70744;SDS011;59284;31.390;34.904;2023-08-24T08:12:26;6.53;;;4.87;;
70744;SDS011;59284;31.390;34.904;2023-08-24T08:14:51;12.83;;;4.87;;
70744;SDS011;59284;31.390;34.904;2023-08-24T08:17:17;9.67;;;5.17;;
70744;SDS011;59284;31.390;34.904;2023-08-24T08:19:42;7.83;;;4.67;;
70744;SDS011;59284;31.390;34.904;2023-08-24T08:22:08;11.55;;;6.68;;
70744;SDS011;59284;31.390;34.904;2023-08-24T08:24:33;9.30;;;5.93;;
70744;SDS011;59284;31.390;34.904;2023-08-24T08:26:59;11.53;;;6.23;;
70744;SDS011;59284;31.390;34.904;2023-08-24T08:29:25;7.47;;;4.68;;
70744;SDS011;59284;31.390;34.904;2023-08-24T08:31:50;9.97;;;7.27;;
70744;SDS011;59284;31.390;34.904;2023-08-24T08:34:15;9.18;;;5.80;;
70744;SDS011;59284;31.390;34.904;2023-08-24T08:36:41;9.10;;;5.30;;
70744;SDS011;59284;31.390;34.904;2023-08-24T08:39:06;11.37;;;5.10;;
70744;SDS011;59284;31.390;34.904;2023-08-24T08:41:33;11.50;;;5.03;;
70744;SDS011;59284;31.390;34.904;2023-08-24T08:44:04;7.88;;;5.40;;
70744;SDS011;59284;31.390;34.904;2023-08-24T08:46:31;8.35;;;5.03;;
70744;SDS011;59284;31.390;34.904;2023-08-24T08:48:57;12.40;;;4.93;;
70744;SDS011;59284;31.390;34.904;2023-08-24T08:51:23;9.57;;;5.10;;
70744;SDS011;59284;31.390;34.904;2023-08-24T08:53:49;7.65;;;4.82;;
70744;SDS011;59284;31.390;34.904;2023-08-24T08:56:14;7.93;;;5.17;;
70744;SDS011;59284;31.390;34.904;2023-08-24T08:58:40;9.35;;;4.75;;
70744;SDS011;59284;31.390;34.904;2023-08-24T09:01:08;11.95;;;5.20;;
70744;SDS011;59284;31.390;34.904;2023-08-24T09:03:33;10.73;;;6.07;;
70744;SDS011;59284;31.390;34.904;2023-08-24T09:05:59;10.13;;;5.43;;
70744;SDS011;59284;31.390;34.904;2023-08-24T09:08:28;9.55;;;5.43;;
70744;SDS011;59284;31.390;34.904;2023-08-24T09:10:54;13.07;;;4.93;;
70744;SDS011;59284;31.390;34.904;2023-08-24T09:13:20;8.85;;;5.07;;
70744;SDS011;59284;31.390;34.904;2023-08-24T09:15:46;9.00;;;4.75;;
70744;SDS011;59284;31.390;34.904;2023-08-24T09:18:11;9.23;;;5.30;;
70744;SDS011;59284;31.390;34.904;2023-08-24T09:20:36;7.37;;;5.30;;
70744;SDS011;59284;31.390;34.904;2023-08-24T09:23:02;10.75;;;6.40;;
70744;SDS011;59284;31.390;34.904;2023-08-24T09:25:27;8.37;;;4.63;;
70744;SDS011;59284;31.390;34.904;2023-08-24T09:28:03;5.30;;;3.47;;
70744;SDS011;59284;31.390;34.904;2023-08-24T09:30:34;7.20;;;5.43;;
70744;SDS011;59284;31.390;34.904;2023-08-24T09:33:03;7.82;;;5.03;;
70744;SDS011;59284;31.390;34.904;2023-08-24T09:35:29;8.90;;;5.68;;
70744;SDS011;59284;31.390;34.904;2023-08-24T09:37:56;13.27;;;5.60;;
70744;SDS011;59284;31.390;34.904;2023-08-24T09:40:25;11.77;;;6.63;;
70744;SDS011;59284;31.390;34.904;2023-08-24T09:42:53;11.07;;;7.82;;
70744;SDS011;59284;31.390;34.904;2023-08-24T09:45:18;11.93;;;5.67;;
70744;SDS011;59284;31.390;34.904;2023-08-24T09:47:50;11.87;;;6.93;;
70744;SDS011;59284;31.390;34.904;2023-08-24T09:50:17;12.25;;;5.95;;
70744;SDS011;59284;31.390;34.904;2023-08-24T09:52:42;6.93;;;4.53;;
70744;SDS011;59284;31.390;34.904;2023-08-24T09:55:08;11.40;;;5.10;;
70744;SDS011;59284;31.390;34.904;2023-08-24T09:57:36;8.20;;;5.55;;
70744;SDS011;59284;31.390;34.904;2023-08-24T10:00:02;10.47;;;4.67;;
70744;SDS011;59284;31.390;34.904;2023-08-24T10:02:35;11.43;;;5.95;;
70744;SDS011;59284;31.390;34.904;2023-08-24T10:05:01;10.02;;;6.50;;
70744;SDS011;59284;31.390;34.904;2023-08-24T10:07:28;10.02;;;5.47;;
70744;SDS011;59284;31.390;34.904;2023-08-24T10:09:58;11.68;;;6.65;;
70744;SDS011;59284;31.390;34.904;2023-08-24T10:12:26;9.60;;;5.87;;
70744;SDS011;59284;31.390;34.904;2023-08-24T10:17:21;10.10;;;6.07;;
70744;SDS011;59284;31.390;34.904;2023-08-24T10:19:47;9.13;;;5.22;;
70744;SDS011;59284;31.390;34.904;2023-08-24T10:22:12;9.00;;;5.33;;
70744;SDS011;59284;31.390;34.904;2023-08-24T10:24:38;12.88;;;6.57;;
70744;SDS011;59284;31.390;34.904;2023-08-24T10:27:04;10.77;;;5.83;;
70744;SDS011;59284;31.390;34.904;2023-08-24T10:29:30;11.02;;;5.88;;
70744;SDS011;59284;31.390;34.904;2023-08-24T10:31:56;9.60;;;5.13;;
70744;SDS011;59284;31.390;34.904;2023-08-24T10:34:22;9.05;;;4.35;;
70744;SDS011;59284;31.390;34.904;2023-08-24T10:36:48;9.55;;;5.28;;
70744;SDS011;59284;31.390;34.904;2023-08-24T10:39:14;6.50;;;4.17;;
70744;SDS011;59284;31.390;34.904;2023-08-24T10:41:49;10.50;;;5.07;;
70744;SDS011;59284;31.390;34.904;2023-08-24T10:44:24;7.50;;;5.13;;
70744;SDS011;59284;31.390;34.904;2023-08-24T10:49:34;12.73;;;5.35;;
70744;SDS011;59284;31.390;34.904;2023-08-24T10:54:45;6.63;;;4.43;;
70744;SDS011;59284;31.390;34.904;2023-08-24T10:57:34;6.45;;;4.07;;
70744;SDS011;59284;31.390;34.904;2023-08-24T11:00:06;8.45;;;4.72;;
70744;SDS011;59284;31.390;34.904;2023-08-24T11:05:23;6.85;;;5.07;;
70744;SDS011;59284;31.390;34.904;2023-08-24T11:08:01;5.97;;;4.63;;
70744;SDS011;59284;31.390;34.904;2023-08-24T11:13:15;11.43;;;5.55;;
70744;SDS011;59284;31.390;34.904;2023-08-24T11:21:03;10.63;;;5.43;;
70744;SDS011;59284;31.390;34.904;2023-08-24T11:23:29;7.50;;;5.80;;
70744;SDS011;59284;31.390;34.904;2023-08-24T11:25:54;9.83;;;5.60;;
70744;SDS011;59284;31.390;34.904;2023-08-24T11:28:22;7.75;;;5.65;;
70744;SDS011;59284;31.390;34.904;2023-08-24T11:30:49;8.23;;;5.73;;
70744;SDS011;59284;31.390;34.904;2023-08-24T11:33:15;9.73;;;6.43;;
70744;SDS011;59284;31.390;34.904;2023-08-24T11:35:45;11.70;;;6.72;;
70744;SDS011;59284;31.390;34.904;2023-08-24T11:38:10;9.32;;;5.13;;
70744;SDS011;59284;31.390;34.904;2023-08-24T11:40:36;6.67;;;5.00;;
70744;SDS011;59284;31.390;34.904;2023-08-24T11:43:02;9.10;;;5.63;;
70744;SDS011;59284;31.390;34.904;2023-08-24T11:45:31;8.35;;;5.20;;
70744;SDS011;59284;31.390;34.904;2023-08-24T11:47:58;7.90;;;4.73;;
70744;SDS011;59284;31.390;34.904;2023-08-24T11:50:25;9.10;;;5.55;;
70744;SDS011;59284;31.390;34.904;2023-08-24T11:52:50;5.73;;;4.00;;
70744;SDS011;59284;31.390;34.904;2023-08-24T11:55:17;7.93;;;5.00;;
70744;SDS011;59284;31.390;34.904;2023-08-24T11:57:43;7.30;;;4.30;;
70744;SDS011;59284;31.390;34.904;2023-08-24T12:00:09;11.20;;;5.32;;
70744;SDS011;59284;31.390;34.904;2023-08-24T12:02:34;7.63;;;5.00;;
70744;SDS011;59284;31.390;34.904;2023-08-24T12:05:00;10.32;;;6.88;;
70744;SDS011;59284;31.390;34.904;2023-08-24T12:07:27;10.68;;;4.45;;
70744;SDS011;59284;31.390;34.904;2023-08-24T12:09:52;13.43;;;6.30;;
70744;SDS011;59284;31.390;34.904;2023-08-24T12:12:19;8.70;;;5.35;;
70744;SDS011;59284;31.390;34.904;2023-08-24T12:14:49;9.07;;;4.15;;
70744;SDS011;59284;31.390;34.904;2023-08-24T12:17:15;6.93;;;4.80;;
70744;SDS011;59284;31.390;34.904;2023-08-24T12:19:43;7.80;;;4.22;;
70744;SDS011;59284;31.390;34.904;2023-08-24T12:22:13;10.43;;;4.87;;
70744;SDS011;59284;31.390;34.904;2023-08-24T12:24:42;9.77;;;5.57;;
70744;SDS011;59284;31.390;34.904;2023-08-24T12:27:08;8.50;;;4.95;;
70744;SDS011;59284;31.390;34.904;2023-08-24T12:29:34;9.00;;;5.28;;
70744;SDS011;59284;31.390;34.904;2023-08-24T12:31:59;11.47;;;4.70;;
70744;SDS011;59284;31.390;34.904;2023-08-24T12:34:25;9.03;;;4.30;;
70744;SDS011;59284;31.390;34.904;2023-08-24T12:36:50;15.48;;;5.07;;
70744;SDS011;59284;31.390;34.904;2023-08-24T12:39:16;7.50;;;4.93;;
70744;SDS011;59284;31.390;34.904;2023-08-24T12:41:41;7.67;;;4.80;;
70744;SDS011;59284;31.390;34.904;2023-08-24T12:44:06;7.50;;;4.33;;
70744;SDS011;59284;31.390;34.904;2023-08-24T12:46:33;9.35;;;4.88;;
70744;SDS011;59284;31.390;34.904;2023-08-24T12:49:00;7.80;;;4.88;;
70744;SDS011;59284;31.390;34.904;2023-08-24T12:51:25;7.73;;;5.47;;
70744;SDS011;59284;31.390;34.904;2023-08-24T12:53:51;10.10;;;4.68;;
70744;SDS011;59284;31.390;34.904;2023-08-24T12:56:16;9.00;;;5.53;;
70744;SDS011;59284;31.390;34.904;2023-08-24T12:58:41;9.17;;;4.93;;
70744;SDS011;59284;31.390;34.904;2023-08-24T13:01:07;8.43;;;4.33;;
70744;SDS011;59284;31.390;34.904;2023-08-24T13:03:32;9.50;;;4.73;;
70744;SDS011;59284;31.390;34.904;2023-08-24T13:05:58;7.57;;;4.13;;
70744;SDS011;59284;31.390;34.904;2023-08-24T13:08:24;7.60;;;5.03;;
70744;SDS011;59284;31.390;34.904;2023-08-24T13:10:51;8.38;;;4.68;;
70744;SDS011;59284;31.390;34.904;2023-08-24T13:13:17;8.07;;;5.63;;
70744;SDS011;59284;31.390;34.904;2023-08-24T13:15:42;8.73;;;5.43;;
70744;SDS011;59284;31.390;34.904;2023-08-24T13:18:07;6.87;;;4.07;;
70744;SDS011;59284;31.390;34.904;2023-08-24T13:20:34;5.53;;;4.32;;
70744;SDS011;59284;31.390;34.904;2023-08-24T13:23:00;10.80;;;5.90;;
70744;SDS011;59284;31.390;34.904;2023-08-24T13:25:25;10.00;;;4.93;;
70744;SDS011;59284;31.390;34.904;2023-08-24T13:27:51;10.17;;;4.87;;
70744;SDS011;59284;31.390;34.904;2023-08-24T13:30:16;9.67;;;5.50;;
70744;SDS011;59284;31.390;34.904;2023-08-24T13:32:41;7.50;;;4.53;;
70744;SDS011;59284;31.390;34.904;2023-08-24T13:35:07;6.30;;;5.00;;
70744;SDS011;59284;31.390;34.904;2023-08-24T13:37:34;6.07;;;4.15;;
70744;SDS011;59284;31.390;34.904;2023-08-24T13:39:59;6.53;;;4.87;;
70744;SDS011;59284;31.390;34.904;2023-08-24T13:42:25;9.90;;;5.17;;
70744;SDS011;59284;31.390;34.904;2023-08-24T13:44:50;8.00;;;4.80;;
70744;SDS011;59284;31.390;34.904;2023-08-24T13:47:15;11.20;;;5.43;;
70744;SDS011;59284;31.390;34.904;2023-08-24T13:49:41;6.57;;;4.20;;
70744;SDS011;59284;31.390;34.904;2023-08-24T13:52:07;8.38;;;5.00;;
70744;SDS011;59284;31.390;34.904;2023-08-24T13:54:33;12.85;;;5.45;;
70744;SDS011;59284;31.390;34.904;2023-08-24T13:56:58;6.80;;;4.80;;
70744;SDS011;59284;31.390;34.904;2023-08-24T13:59:25;6.57;;;4.57;;
70744;SDS011;59284;31.390;34.904;2023-08-24T14:01:50;9.00;;;5.47;;
70744;SDS011;59284;31.390;34.904;2023-08-24T14:04:16;9.53;;;5.20;;
70744;SDS011;59284;31.390;34.904;2023-08-24T14:06:41;7.25;;;4.15;;
70744;SDS011;59284;31.390;34.904;2023-08-24T14:09:07;11.07;;;4.83;;
70744;SDS011;59284;31.390;34.904;2023-08-24T14:11:32;10.53;;;5.63;;
70744;SDS011;59284;31.390;34.904;2023-08-24T14:13:58;7.15;;;4.57;;
70744;SDS011;59284;31.390;34.904;2023-08-24T14:16:24;13.13;;;5.50;;
70744;SDS011;59284;31.390;34.904;2023-08-24T14:18:49;8.07;;;4.55;;
70744;SDS011;59284;31.390;34.904;2023-08-24T14:21:15;7.30;;;5.07;;
70744;SDS011;59284;31.390;34.904;2023-08-24T14:23:40;9.50;;;5.20;;
70744;SDS011;59284;31.390;34.904;2023-08-24T14:26:06;7.03;;;4.73;;
70744;SDS011;59284;31.390;34.904;2023-08-24T14:28:51;8.13;;;4.23;;
70744;SDS011;59284;31.390;34.904;2023-08-24T14:31:24;6.43;;;4.38;;
70744;SDS011;59284;31.390;34.904;2023-08-24T14:33:51;14.13;;;5.28;;
70744;SDS011;59284;31.390;34.904;2023-08-24T14:36:16;8.07;;;4.97;;
70744;SDS011;59284;31.390;34.904;2023-08-24T14:38:42;7.03;;;4.90;;
70744;SDS011;59284;31.390;34.904;2023-08-24T14:41:11;6.00;;;4.10;;
70744;SDS011;59284;31.390;34.904;2023-08-24T14:43:36;9.95;;;5.65;;